createdAt,value
2022-12-25T00:01:12.124Z,9.20
2022-12-25T00:03:39.337Z,9.20
2022-12-25T00:06:07.065Z,9.20
2022-12-25T00:08:34.560Z,9.30
2022-12-25T00:11:10.727Z,9.30
2022-12-25T00:13:37.685Z,9.30
2022-12-25T00:16:10.045Z,9.30
2022-12-25T00:18:36.899Z,9.30
2022-12-25T00:21:06.298Z,9.30
2022-12-25T00:23:34.616Z,9.30
2022-12-25T00:26:05.780Z,9.30
2022-12-25T00:28:32.506Z,9.30
2022-12-25T00:30:59.353Z,9.30
2022-12-25T00:33:26.366Z,9.30
2022-12-25T00:36:00.189Z,9.30
2022-12-25T00:38:27.814Z,9.30
2022-12-25T00:40:55.033Z,9.30
2022-12-25T00:43:22.458Z,9.30
2022-12-25T00:46:00.163Z,9.30
2022-12-25T00:48:27.817Z,9.30
2022-12-25T00:50:59.683Z,9.30
2022-12-25T00:53:27.356Z,9.30
2022-12-25T00:55:59.596Z,9.40
2022-12-25T00:58:28.376Z,9.40
2022-12-25T01:00:56.246Z,9.40
2022-12-25T01:03:24.104Z,9.40
2022-12-25T01:05:59.551Z,9.50
2022-12-25T01:08:29.058Z,9.40
2022-12-25T01:11:01.412Z,9.40
2022-12-25T01:13:29.895Z,9.40
2022-12-25T01:15:56.846Z,9.40
2022-12-25T01:18:24.997Z,9.30
2022-12-25T01:20:51.923Z,9.30
2022-12-25T01:23:18.705Z,9.20
2022-12-25T01:25:45.517Z,9.20
2022-12-25T01:28:12.290Z,9.20
2022-12-25T01:30:39.889Z,9.10
2022-12-25T01:33:06.697Z,9.10
2022-12-25T01:35:33.463Z,9.10
2022-12-25T01:38:00.294Z,9.10
2022-12-25T01:40:27.080Z,9.10
2022-12-25T01:42:53.805Z,9.10
2022-12-25T01:45:42.290Z,9.10
2022-12-25T01:48:13.748Z,9.10
2022-12-25T01:50:46.102Z,9.10
2022-12-25T01:53:13.330Z,9.10
2022-12-25T01:55:42.179Z,9.10
2022-12-25T01:58:09.499Z,9.20
2022-12-25T02:00:36.350Z,9.10
2022-12-25T02:03:03.762Z,9.10
2022-12-25T02:05:32.921Z,9.10
2022-12-25T02:08:04.425Z,9.20
2022-12-25T02:10:31.171Z,9.20
2022-12-25T02:12:58.205Z,9.20
2022-12-25T02:15:40.710Z,9.20
2022-12-25T02:18:22.607Z,9.20
2022-12-25T02:21:04.749Z,9.20
2022-12-25T02:24:09.975Z,9.10
2022-12-25T02:26:54.555Z,9.10
2022-12-25T02:29:45.344Z,9.10
2022-12-25T02:32:20.836Z,9.10
2022-12-25T02:34:51.975Z,9.10
2022-12-25T02:37:37.273Z,9.10
2022-12-25T02:40:06.749Z,9.10
2022-12-25T02:43:02.478Z,9.10
2022-12-25T02:45:59.202Z,9.20
2022-12-25T02:48:48.983Z,9.20
2022-12-25T02:51:37.165Z,9.30
2022-12-25T02:54:27.163Z,9.30
2022-12-25T02:57:13.692Z,9.40
2022-12-25T03:00:03.189Z,9.40
2022-12-25T03:02:51.854Z,9.30
2022-12-25T03:05:41.616Z,9.30
2022-12-25T03:08:13.758Z,9.30
2022-12-25T03:11:03.815Z,9.30
2022-12-25T03:13:36.956Z,9.30
2022-12-25T03:16:22.542Z,9.30
2022-12-25T03:18:49.346Z,9.30
2022-12-25T03:21:34.983Z,9.30
2022-12-25T03:24:22.508Z,9.30
2022-12-25T03:26:55.248Z,9.30
2022-12-25T03:29:47.564Z,9.20
2022-12-25T03:32:26.065Z,9.20
2022-12-25T03:35:11.535Z,9.20
2022-12-25T03:38:07.165Z,9.20
2022-12-25T03:41:29.450Z,9.20
2022-12-25T03:44:21.795Z,9.20
2022-12-25T03:47:15.533Z,9.20
2022-12-25T03:50:09.002Z,9.20
2022-12-25T03:52:56.877Z,9.20
2022-12-25T03:55:43.707Z,9.20
2022-12-25T03:58:40.786Z,9.20
2022-12-25T04:01:26.080Z,9.10
2022-12-25T04:04:11.302Z,9.10
2022-12-25T04:06:56.994Z,9.10
2022-12-25T04:09:42.460Z,9.20
2022-12-25T04:12:27.917Z,9.20
2022-12-25T04:15:13.532Z,9.10
2022-12-25T04:18:12.536Z,9.10
2022-12-25T04:20:58.043Z,9.10
2022-12-25T04:23:43.404Z,9.10
2022-12-25T04:26:28.576Z,9.20
2022-12-25T04:29:13.963Z,9.10
2022-12-25T04:31:59.398Z,9.20
2022-12-25T04:34:44.816Z,9.20
2022-12-25T04:37:11.517Z,9.20
2022-12-25T04:39:38.227Z,9.20
2022-12-25T04:42:06.124Z,9.20
2022-12-25T04:44:32.939Z,9.20
2022-12-25T04:46:59.687Z,9.10
2022-12-25T04:49:26.509Z,9.20
2022-12-25T04:51:53.341Z,9.10
2022-12-25T04:54:20.073Z,9.10
2022-12-25T04:56:46.821Z,9.20
2022-12-25T04:59:13.609Z,9.10
2022-12-25T05:01:41.136Z,9.10
2022-12-25T05:04:07.998Z,9.20
2022-12-25T05:06:34.987Z,9.20
2022-12-25T05:09:01.713Z,9.10
2022-12-25T05:11:28.451Z,9.10
2022-12-25T05:13:55.188Z,9.10
2022-12-25T05:16:22.125Z,9.10
2022-12-25T05:18:50.827Z,9.10
2022-12-25T05:21:17.903Z,9.10
2022-12-25T05:23:51.157Z,9.00
2022-12-25T05:26:22.027Z,9.00
2022-12-25T05:28:49.049Z,9.00
2022-12-25T05:31:16.453Z,9.00
2022-12-25T05:33:43.399Z,9.00
2022-12-25T05:36:12.209Z,9.00
2022-12-25T05:38:39.740Z,8.90
2022-12-25T05:41:06.872Z,8.90
2022-12-25T05:43:33.586Z,8.80
2022-12-25T05:46:08.089Z,8.80
2022-12-25T05:48:37.224Z,8.70
2022-12-25T05:51:10.100Z,8.70
2022-12-25T05:53:37.480Z,8.70
2022-12-25T05:56:06.982Z,8.70
2022-12-25T05:58:38.418Z,8.70
2022-12-25T06:01:18.014Z,8.70
2022-12-25T06:03:45.277Z,8.60
2022-12-25T06:06:12.671Z,8.60
2022-12-25T06:08:39.525Z,8.60
2022-12-25T06:11:07.453Z,8.60
2022-12-25T06:13:35.539Z,8.60
2022-12-25T06:16:06.728Z,8.60
2022-12-25T06:18:38.833Z,8.60
2022-12-25T06:21:10.977Z,8.60
2022-12-25T06:23:39.573Z,8.60
2022-12-25T06:26:12.102Z,8.70
2022-12-25T06:28:39.170Z,8.70
2022-12-25T06:31:15.055Z,8.70
2022-12-25T06:33:42.274Z,8.70
2022-12-25T06:36:18.148Z,8.70
2022-12-25T06:38:44.960Z,8.70
2022-12-25T06:41:20.574Z,8.70
2022-12-25T06:44:05.502Z,8.70
2022-12-25T06:46:32.421Z,8.70
2022-12-25T06:48:59.856Z,8.70
2022-12-25T06:51:29.699Z,8.70
2022-12-25T06:53:57.361Z,8.70
2022-12-25T06:56:27.805Z,8.70
2022-12-25T06:59:03.130Z,8.70
2022-12-25T07:01:31.956Z,8.70
2022-12-25T07:04:02.037Z,8.70
2022-12-25T07:06:28.998Z,8.70
2022-12-25T07:08:55.872Z,8.70
2022-12-25T07:11:22.840Z,8.70
2022-12-25T07:13:49.779Z,8.70
2022-12-25T07:16:16.839Z,8.70
2022-12-25T07:18:43.853Z,8.70
2022-12-25T07:21:13.580Z,8.70
2022-12-25T07:23:40.727Z,8.70
2022-12-25T07:26:07.641Z,8.80
2022-12-25T07:28:34.476Z,8.80
2022-12-25T07:31:03.476Z,8.70
2022-12-25T07:33:30.311Z,8.70
2022-12-25T07:35:57.059Z,8.70
2022-12-25T07:38:23.857Z,8.70
2022-12-25T07:40:50.599Z,8.70
2022-12-25T07:43:17.853Z,8.70
2022-12-25T07:45:44.779Z,8.70
2022-12-25T07:48:16.409Z,8.60
2022-12-25T07:50:43.620Z,8.60
2022-12-25T07:53:10.430Z,8.60
2022-12-25T07:55:37.191Z,8.50
2022-12-25T07:58:03.905Z,8.50
2022-12-25T08:00:34.128Z,8.40
2022-12-25T08:03:01.240Z,8.50
2022-12-25T08:05:28.918Z,8.50
2022-12-25T08:07:58.031Z,8.50
2022-12-25T08:10:25.403Z,8.50
2022-12-25T08:12:55.213Z,8.60
2022-12-25T08:15:21.990Z,8.70
2022-12-25T08:17:48.701Z,8.70
2022-12-25T08:20:15.502Z,8.80
2022-12-25T08:22:42.261Z,8.80
2022-12-25T08:25:09.811Z,8.90
2022-12-25T08:27:36.576Z,8.90
2022-12-25T08:30:03.703Z,8.90
2022-12-25T08:32:32.890Z,8.90
2022-12-25T08:34:59.618Z,9.00
2022-12-25T08:37:26.497Z,9.00
2022-12-25T08:39:53.660Z,9.00
2022-12-25T08:42:20.480Z,9.00
2022-12-25T08:44:47.226Z,9.10
2022-12-25T08:47:14.134Z,9.10
2022-12-25T08:49:40.832Z,9.10
2022-12-25T08:52:07.972Z,9.20
2022-12-25T08:54:36.366Z,9.20
2022-12-25T08:57:04.041Z,9.20
2022-12-25T08:59:31.045Z,9.30
2022-12-25T09:01:57.898Z,9.30
2022-12-25T09:04:24.721Z,9.30
2022-12-25T09:06:51.520Z,9.30
2022-12-25T09:09:18.219Z,9.30
2022-12-25T09:11:45.103Z,9.20
2022-12-25T09:14:13.714Z,9.20
2022-12-25T09:16:40.449Z,9.30
2022-12-25T09:19:07.269Z,9.30
2022-12-25T09:21:34.096Z,9.30
2022-12-25T09:24:00.830Z,9.40
2022-12-25T09:26:27.579Z,9.50
2022-12-25T09:28:54.387Z,9.60
2022-12-25T09:31:22.499Z,9.70
2022-12-25T09:33:50.840Z,9.80
2022-12-25T09:36:17.742Z,9.90
2022-12-25T09:38:47.408Z,10.00
2022-12-25T09:41:29.304Z,9.90
2022-12-25T09:44:30.671Z,10.00
2022-12-25T09:47:02.423Z,10.00
2022-12-25T09:49:47.704Z,10.10
2022-12-25T09:52:22.830Z,10.10
2022-12-25T09:55:14.744Z,10.30
2022-12-25T09:57:45.554Z,10.30
2022-12-25T10:00:18.831Z,10.30
2022-12-25T10:03:18.534Z,10.30
2022-12-25T10:05:58.982Z,10.30
2022-12-25T10:08:25.808Z,10.40
2022-12-25T10:11:14.168Z,10.50
2022-12-25T10:14:05.904Z,10.50
2022-12-25T10:17:01.219Z,10.40
2022-12-25T10:19:34.031Z,10.30
2022-12-25T10:22:14.128Z,10.30
2022-12-25T10:24:49.516Z,10.40
2022-12-25T10:27:20.664Z,10.40
2022-12-25T10:29:53.759Z,10.50
2022-12-25T10:32:21.426Z,10.60
2022-12-25T10:34:48.573Z,10.60
2022-12-25T10:37:16.215Z,10.70
2022-12-25T10:39:46.630Z,10.80
2022-12-25T10:42:22.618Z,10.90
2022-12-25T10:45:05.474Z,11.10
2022-12-25T10:47:37.966Z,11.30
2022-12-25T10:50:33.847Z,11.40
2022-12-25T10:53:05.257Z,11.40
2022-12-25T10:55:32.876Z,11.50
2022-12-25T10:58:02.039Z,11.60
2022-12-25T11:00:31.497Z,11.70
2022-12-25T11:02:59.279Z,11.80
2022-12-25T11:05:33.323Z,11.90
2022-12-25T11:08:02.508Z,12.00
2022-12-25T11:10:43.822Z,12.00
2022-12-25T11:13:21.757Z,12.00
2022-12-25T11:15:49.688Z,12.00
2022-12-25T11:18:22.607Z,11.90
2022-12-25T11:21:00.057Z,11.90
2022-12-25T11:23:29.523Z,12.00
2022-12-25T11:26:05.068Z,12.00
2022-12-25T11:28:34.967Z,11.90
2022-12-25T11:31:19.159Z,11.80
2022-12-25T11:33:57.092Z,11.80
2022-12-25T11:36:59.132Z,11.80
2022-12-25T11:39:29.845Z,11.80
2022-12-25T11:42:26.477Z,11.80
2022-12-25T11:45:15.471Z,11.80
2022-12-25T11:47:48.657Z,11.80
2022-12-25T11:50:27.626Z,11.80
2022-12-25T11:52:55.298Z,11.80
2022-12-25T11:55:24.903Z,11.80
2022-12-25T11:57:56.027Z,11.80
2022-12-25T12:00:23.268Z,11.80
2022-12-25T12:03:00.365Z,11.80
2022-12-25T12:05:35.222Z,11.80
2022-12-25T12:08:05.158Z,11.80
2022-12-25T12:10:59.484Z,11.80
2022-12-25T12:13:44.074Z,11.90
2022-12-25T12:16:11.436Z,11.90
2022-12-25T12:18:38.278Z,11.90
2022-12-25T12:21:05.059Z,11.90
2022-12-25T12:23:47.655Z,11.80
2022-12-25T12:26:37.905Z,11.80
2022-12-25T12:29:08.105Z,11.80
2022-12-25T12:31:44.507Z,11.80
2022-12-25T12:34:24.125Z,11.80
2022-12-25T12:36:56.716Z,11.70
2022-12-25T12:39:33.349Z,11.70
2022-12-25T12:42:00.131Z,11.70
2022-12-25T12:44:32.863Z,11.80
2022-12-25T12:46:59.681Z,11.80
2022-12-25T12:49:29.728Z,11.80
2022-12-25T12:52:10.457Z,11.80
2022-12-25T12:55:13.740Z,11.80
2022-12-25T12:57:41.093Z,11.80
2022-12-25T13:00:16.154Z,11.80
2022-12-25T13:03:18.089Z,11.80
2022-12-25T13:06:08.126Z,11.80
2022-12-25T13:08:45.440Z,11.90
2022-12-25T13:11:23.750Z,11.90
2022-12-25T13:13:53.904Z,11.90
2022-12-25T13:16:49.177Z,11.90
2022-12-25T13:19:21.785Z,12.00
2022-12-25T13:22:00.417Z,12.00
2022-12-25T13:24:29.518Z,12.00
2022-12-25T13:26:56.459Z,12.00
2022-12-25T13:29:33.089Z,11.90
2022-12-25T13:32:01.731Z,12.00
2022-12-25T13:34:37.600Z,11.90
2022-12-25T13:37:14.445Z,11.90
2022-12-25T13:40:07.114Z,11.90
2022-12-25T13:42:36.446Z,11.80
2022-12-25T13:45:07.665Z,11.80
2022-12-25T13:47:40.338Z,11.80
2022-12-25T13:50:28.374Z,11.80
2022-12-25T13:52:58.566Z,11.80
2022-12-25T13:55:29.766Z,11.80
2022-12-25T13:58:03.419Z,11.80
2022-12-25T14:00:54.124Z,11.80
2022-12-25T14:03:39.331Z,11.70
2022-12-25T14:06:07.864Z,11.70
2022-12-25T14:08:35.870Z,11.70
2022-12-25T14:11:05.779Z,11.70
2022-12-25T14:13:37.875Z,11.70
2022-12-25T14:16:05.363Z,11.70
2022-12-25T14:18:33.305Z,11.70
2022-12-25T14:21:25.682Z,11.70
2022-12-25T14:23:52.563Z,11.70
2022-12-25T14:26:25.135Z,11.60
2022-12-25T14:29:18.066Z,11.60
2022-12-25T14:31:46.836Z,11.60
2022-12-25T14:34:23.200Z,11.50
2022-12-25T14:36:50.783Z,11.50
2022-12-25T14:39:30.268Z,11.50
2022-12-25T14:41:57.249Z,11.50
2022-12-25T14:44:44.250Z,11.40
2022-12-25T14:47:10.936Z,11.50
2022-12-25T14:49:38.152Z,11.50
2022-12-25T14:52:37.245Z,11.50
2022-12-25T14:55:07.821Z,11.40
2022-12-25T14:57:38.766Z,11.40
2022-12-25T15:00:20.610Z,11.40
2022-12-25T15:02:48.612Z,11.40
2022-12-25T15:05:32.476Z,11.40
2022-12-25T15:08:07.032Z,11.40
2022-12-25T15:13:21.892Z,11.30
2022-12-25T15:15:53.902Z,11.30
2022-12-25T15:18:23.586Z,11.30
2022-12-25T15:20:54.840Z,11.20
2022-12-25T15:23:22.018Z,11.20
2022-12-25T15:25:50.991Z,11.10
2022-12-25T15:28:17.805Z,11.10
2022-12-25T15:30:44.670Z,11.10
2022-12-25T15:33:15.634Z,11.10
2022-12-25T15:35:44.417Z,11.10
2022-12-25T15:38:12.471Z,11.00
2022-12-25T15:40:40.129Z,11.00
2022-12-25T15:43:20.850Z,10.90
2022-12-25T15:45:49.206Z,11.00
2022-12-25T15:48:15.950Z,10.90
2022-12-25T15:50:44.192Z,10.90
2022-12-25T15:53:11.254Z,10.90
2022-12-25T15:55:38.388Z,10.80
2022-12-25T15:58:05.394Z,10.90
2022-12-25T16:00:32.273Z,10.90
2022-12-25T16:03:00.251Z,10.90
2022-12-25T16:05:27.268Z,10.90
2022-12-25T16:07:54.041Z,10.90
2022-12-25T16:10:22.575Z,10.90
2022-12-25T16:12:49.256Z,11.00
2022-12-25T16:15:16.223Z,10.90
2022-12-25T16:17:43.105Z,10.90
2022-12-25T16:20:10.260Z,10.90
2022-12-25T16:22:40.077Z,10.90
2022-12-25T16:25:15.751Z,10.80
2022-12-25T16:27:42.980Z,10.80
2022-12-25T16:30:12.298Z,10.80
2022-12-25T16:32:39.183Z,10.80
2022-12-25T16:35:06.505Z,10.80
2022-12-25T16:37:34.401Z,10.70
2022-12-25T16:40:01.368Z,10.70
2022-12-25T16:42:28.101Z,10.70
2022-12-25T16:44:54.905Z,10.70
2022-12-25T16:47:21.638Z,10.60
2022-12-25T16:49:48.408Z,10.60
2022-12-25T16:52:15.099Z,10.60
2022-12-25T16:54:41.901Z,10.60
2022-12-25T16:57:08.670Z,10.60
2022-12-25T16:59:35.912Z,10.60
2022-12-25T17:02:02.856Z,10.60
2022-12-25T17:04:29.782Z,10.60
2022-12-25T17:06:57.122Z,10.60
2022-12-25T17:09:24.668Z,10.60
2022-12-25T17:11:51.481Z,10.60
2022-12-25T17:14:18.310Z,10.60
2022-12-25T17:16:45.242Z,10.60
2022-12-25T17:19:20.169Z,10.60
2022-12-25T17:21:47.600Z,10.60
2022-12-25T17:24:15.209Z,10.60
2022-12-25T17:26:43.896Z,10.50
2022-12-25T17:29:14.755Z,10.50
2022-12-25T17:31:45.455Z,10.50
2022-12-25T17:34:12.331Z,10.50
2022-12-25T17:36:39.046Z,10.50
2022-12-25T17:39:06.798Z,10.40
2022-12-25T17:41:33.652Z,10.40
2022-12-25T17:44:00.454Z,10.40
2022-12-25T17:46:29.233Z,10.40
2022-12-25T17:48:59.051Z,10.40
2022-12-25T17:51:27.809Z,10.40
2022-12-25T17:53:56.896Z,10.40
2022-12-25T17:56:24.614Z,10.40
2022-12-25T17:58:56.898Z,10.40
2022-12-25T18:01:25.152Z,10.30
2022-12-25T18:03:52.819Z,10.40
2022-12-25T18:06:22.146Z,10.40
2022-12-25T18:08:49.312Z,10.30
2022-12-25T18:11:23.218Z,10.30
2022-12-25T18:13:52.177Z,10.40
2022-12-25T18:16:22.013Z,10.40
2022-12-25T18:18:52.281Z,10.40
2022-12-25T18:21:21.336Z,10.40
2022-12-25T18:23:48.524Z,10.40
2022-12-25T18:26:15.529Z,10.40
2022-12-25T18:28:43.838Z,10.40
2022-12-25T18:31:14.712Z,10.40
2022-12-25T18:33:42.151Z,10.40
2022-12-25T18:36:10.321Z,10.40
2022-12-25T18:38:37.090Z,10.40
2022-12-25T18:41:09.102Z,10.40
2022-12-25T18:43:52.987Z,10.40
2022-12-25T18:46:24.072Z,10.40
2022-12-25T18:48:52.498Z,10.40
2022-12-25T18:51:19.289Z,10.40
2022-12-25T18:53:46.240Z,10.40
2022-12-25T18:56:18.055Z,10.40
2022-12-25T18:58:46.175Z,10.40
2022-12-25T19:01:19.265Z,10.40
2022-12-25T19:03:48.078Z,10.30
2022-12-25T19:06:23.532Z,10.30
2022-12-25T19:08:50.717Z,10.30
2022-12-25T19:11:19.256Z,10.30
2022-12-25T19:13:46.518Z,10.30
2022-12-25T19:16:13.353Z,10.30
2022-12-25T19:18:40.279Z,10.30
2022-12-25T19:21:09.088Z,10.30
2022-12-25T19:23:37.832Z,10.30
2022-12-25T19:26:09.626Z,10.20
2022-12-25T19:28:37.634Z,10.20
2022-12-25T19:31:07.365Z,10.20
2022-12-25T19:33:35.713Z,10.20
2022-12-25T19:36:05.403Z,10.20
2022-12-25T19:38:32.295Z,10.20
2022-12-25T19:41:01.865Z,10.10
2022-12-25T19:43:30.707Z,10.10
2022-12-25T19:45:57.959Z,10.10
2022-12-25T19:48:25.024Z,10.10
2022-12-25T19:50:52.219Z,10.10
2022-12-25T19:53:19.083Z,10.10
2022-12-25T19:55:45.913Z,10.10
2022-12-25T19:58:12.631Z,10.00
2022-12-25T20:00:40.677Z,10.00
2022-12-25T20:03:08.890Z,9.90
2022-12-25T20:05:35.740Z,9.90
2022-12-25T20:08:02.673Z,9.90
2022-12-25T20:10:29.560Z,9.80
2022-12-25T20:12:56.340Z,9.70
2022-12-25T20:15:23.167Z,9.70
2022-12-25T20:17:49.864Z,9.70
2022-12-25T20:20:16.695Z,9.70
2022-12-25T20:22:43.362Z,9.70
2022-12-25T20:25:11.155Z,9.70
2022-12-25T20:27:37.871Z,9.70
2022-12-25T20:30:05.248Z,9.70
2022-12-25T20:32:31.968Z,9.60
2022-12-25T20:34:58.760Z,9.70
2022-12-25T20:37:25.514Z,9.60
2022-12-25T20:39:52.186Z,9.60
2022-12-25T20:42:19.034Z,9.70
2022-12-25T20:44:46.136Z,9.70
2022-12-25T20:47:12.965Z,9.60
2022-12-25T20:49:39.665Z,9.60
2022-12-25T20:52:06.428Z,9.60
2022-12-25T20:54:33.762Z,9.60
2022-12-25T20:57:00.661Z,9.60
2022-12-25T20:59:32.036Z,9.60
2022-12-25T21:02:02.258Z,9.60
2022-12-25T21:04:29.007Z,9.60
2022-12-25T21:06:55.721Z,9.50
2022-12-25T21:09:22.434Z,9.50
2022-12-25T21:11:49.193Z,9.60
2022-12-25T21:14:15.970Z,9.60
2022-12-25T21:16:44.201Z,9.60
2022-12-25T21:19:11.378Z,9.60
2022-12-25T21:21:42.671Z,9.60
2022-12-25T21:24:10.686Z,9.60
2022-12-25T21:26:39.887Z,9.60
2022-12-25T21:29:09.342Z,9.60
2022-12-25T21:31:56.117Z,9.60
2022-12-25T21:34:22.899Z,9.50
2022-12-25T21:36:49.707Z,9.50
2022-12-25T21:39:16.575Z,9.50
2022-12-25T21:41:43.475Z,9.50
2022-12-25T21:44:11.571Z,9.50
2022-12-25T21:46:38.381Z,9.50
2022-12-25T21:49:05.289Z,9.50
2022-12-25T21:51:52.060Z,9.50
2022-12-25T21:54:21.392Z,9.50
2022-12-25T21:56:49.219Z,9.60
2022-12-25T21:59:19.538Z,9.50
2022-12-25T22:01:46.925Z,9.60
2022-12-25T22:04:15.799Z,9.60
2022-12-25T22:07:01.598Z,9.60
2022-12-25T22:09:28.357Z,9.60
2022-12-25T22:12:13.669Z,9.60
2022-12-25T22:14:55.363Z,9.70
2022-12-25T22:17:48.130Z,9.70
2022-12-25T22:20:27.699Z,9.70
2022-12-25T22:22:54.831Z,9.60
2022-12-25T22:25:21.741Z,9.70
2022-12-25T22:27:49.417Z,9.70
2022-12-25T22:30:25.829Z,9.70
2022-12-25T22:32:53.576Z,9.70
2022-12-25T22:35:20.665Z,9.70
2022-12-25T22:37:48.323Z,9.70
2022-12-25T22:40:16.788Z,9.70
2022-12-25T22:42:43.755Z,9.70
2022-12-25T22:45:11.539Z,9.70
2022-12-25T22:47:38.630Z,9.70
2022-12-25T22:50:06.297Z,9.70
2022-12-25T22:52:33.349Z,9.70
2022-12-25T22:55:00.155Z,9.70
2022-12-25T22:57:26.977Z,9.70
2022-12-25T22:59:53.726Z,9.80
2022-12-25T23:02:20.961Z,9.80
2022-12-25T23:04:47.995Z,9.80
2022-12-25T23:07:15.600Z,9.90
2022-12-25T23:09:43.487Z,9.90
2022-12-25T23:12:29.949Z,9.90
2022-12-25T23:14:57.028Z,9.90
2022-12-25T23:17:42.775Z,9.90
2022-12-25T23:20:31.593Z,9.90
2022-12-25T23:23:17.040Z,9.90
2022-12-25T23:26:02.647Z,9.90
2022-12-25T23:28:48.162Z,9.90
2022-12-25T23:31:14.994Z,9.90
2022-12-25T23:33:41.860Z,9.90
2022-12-25T23:36:08.679Z,9.90
2022-12-25T23:38:35.366Z,9.90
2022-12-25T23:41:02.088Z,9.90
2022-12-25T23:43:28.867Z,9.90
2022-12-25T23:45:55.615Z,9.90
2022-12-25T23:48:22.381Z,9.90
2022-12-25T23:50:49.095Z,9.90
2022-12-25T23:53:15.876Z,9.90
2022-12-25T23:55:42.792Z,9.90
2022-12-25T23:58:09.721Z,9.90
